Bento Goncalves, Brazil
Current Conditions -  °F | °C
As of 8:00 AM on Monday 20 Oct 2014 (Local Time) from SBCO Reporting Station
Clear Clear  
Wind Chill: 64°   Ceiling: Unl
Heat Index: 64°   Visibility: 6mi
Dew Point: 59°   Wind: 3mph
Humidity: 83%   Direction: 300°WNW
Pressure: 30.12"   Gusts: NA
Location:  29.17°S, 51.52°W
Report Text: SBCO 201100Z 30003KT CAVOK 18/15 Q1020
Loading
Personal Weather Stations






























Interactive Weather Map
Tropical Storm Tracking
New forecast layout! Learn more

10-Day Weather Forecast

Advertisements
Track Severe Weather on mobile